Terminal Aerodrome Forecast
Issued by NWS

Home | Current Version | Previous Version | Text Only | Print | Product List | Glossary On
Versions: 1 2 3 4 5 6 7 8 9 10 11 12 13 14 15 16 17 18
000
FTUS44 KCRP 202300
TAFALI
TAF
KALI 202323Z 2100/2124 05005KT P6SM BKN015 OVC080
     FM210700 01004KT 6SM BR OVC015
      TEMPO 2110/2113 OVC008
     FM211600 06005KT P6SM BKN020 OVC050=

USA.gov is the U.S. government's official web portal to all federal, state and local government web resources and services.